sensor_id;sensor_type;location;lat;lon;timestamp;pressure;altitude;pressure_sealevel;temperature;humidity
82927;BME280;72788;40.218;44.486;2023-11-19T00:02:19;88315.91;;;12.83;43.52
82927;BME280;72788;40.218;44.486;2023-11-19T00:04:44;88317.16;;;12.78;43.21
82927;BME280;72788;40.218;44.486;2023-11-19T00:07:10;88316.97;;;12.73;43.45
82927;BME280;72788;40.218;44.486;2023-11-19T00:09:37;88301.06;;;12.73;43.41
82927;BME280;72788;40.218;44.486;2023-11-19T00:12:07;88296.81;;;12.75;43.76
82927;BME280;72788;40.218;44.486;2023-11-19T00:14:35;88300.22;;;12.76;43.42
82927;BME280;72788;40.218;44.486;2023-11-19T00:17:01;88308.41;;;12.82;43.49
82927;BME280;72788;40.218;44.486;2023-11-19T00:19:27;88319.91;;;12.75;43.76
82927;BME280;72788;40.218;44.486;2023-11-19T00:21:53;88320.34;;;12.73;44.17
82927;BME280;72788;40.218;44.486;2023-11-19T00:24:18;88312.06;;;12.71;43.56
82927;BME280;72788;40.218;44.486;2023-11-19T00:26:45;88310.66;;;12.67;43.65
82927;BME280;72788;40.218;44.486;2023-11-19T00:29:12;88316.41;;;12.65;43.90
82927;BME280;72788;40.218;44.486;2023-11-19T00:31:39;88315.41;;;12.59;43.52
82927;BME280;72788;40.218;44.486;2023-11-19T00:34:04;88322.19;;;12.60;43.80
82927;BME280;72788;40.218;44.486;2023-11-19T00:36:31;88317.66;;;12.61;43.81
82927;BME280;72788;40.218;44.486;2023-11-19T00:38:57;88310.44;;;12.61;43.84
82927;BME280;72788;40.218;44.486;2023-11-19T00:41:23;88313.22;;;12.70;43.81
82927;BME280;72788;40.218;44.486;2023-11-19T00:43:50;88306.06;;;12.84;43.97
82927;BME280;72788;40.218;44.486;2023-11-19T00:46:16;88295.47;;;12.84;43.68
82927;BME280;72788;40.218;44.486;2023-11-19T00:48:42;88305.09;;;12.77;43.62
82927;BME280;72788;40.218;44.486;2023-11-19T00:51:07;88308.16;;;12.76;43.52
82927;BME280;72788;40.218;44.486;2023-11-19T00:53:33;88311.56;;;12.76;43.59
82927;BME280;72788;40.218;44.486;2023-11-19T00:56:01;88306.66;;;12.75;44.04
82927;BME280;72788;40.218;44.486;2023-11-19T00:58:27;88319.25;;;12.71;43.74
82927;BME280;72788;40.218;44.486;2023-11-19T01:00:52;88304.44;;;12.73;43.80
82927;BME280;72788;40.218;44.486;2023-11-19T01:03:18;88293.41;;;12.75;43.52
82927;BME280;72788;40.218;44.486;2023-11-19T01:05:44;88283.94;;;12.61;43.93
82927;BME280;72788;40.218;44.486;2023-11-19T01:08:12;88278.75;;;12.58;43.76
82927;BME280;72788;40.218;44.486;2023-11-19T01:10:37;88267.59;;;12.50;43.90
82927;BME280;72788;40.218;44.486;2023-11-19T01:13:03;88279.56;;;12.55;43.85
82927;BME280;72788;40.218;44.486;2023-11-19T01:15:31;88297.59;;;12.60;43.56
82927;BME280;72788;40.218;44.486;2023-11-19T01:17:57;88285.41;;;12.62;43.96
82927;BME280;72788;40.218;44.486;2023-11-19T01:20:23;88274.09;;;12.62;43.75
82927;BME280;72788;40.218;44.486;2023-11-19T01:22:49;88288.31;;;12.68;44.11
82927;BME280;72788;40.218;44.486;2023-11-19T01:25:15;88283.34;;;12.70;43.67
82927;BME280;72788;40.218;44.486;2023-11-19T01:27:40;88273.47;;;12.70;43.62
82927;BME280;72788;40.218;44.486;2023-11-19T01:30:06;88268.59;;;12.69;43.10
82927;BME280;72788;40.218;44.486;2023-11-19T01:32:35;88273.25;;;12.65;43.41
82927;BME280;72788;40.218;44.486;2023-11-19T01:35:03;88275.16;;;12.64;43.43
82927;BME280;72788;40.218;44.486;2023-11-19T01:37:28;88280.97;;;12.59;43.64
82927;BME280;72788;40.218;44.486;2023-11-19T01:39:54;88274.78;;;12.50;43.06
82927;BME280;72788;40.218;44.486;2023-11-19T01:42:20;88280.91;;;12.47;43.10
82927;BME280;72788;40.218;44.486;2023-11-19T01:45:04;88277.19;;;12.44;43.74
82927;BME280;72788;40.218;44.486;2023-11-19T01:47:33;88278.22;;;12.34;43.72
82927;BME280;72788;40.218;44.486;2023-11-19T01:50:01;88270.69;;;12.16;43.97
82927;BME280;72788;40.218;44.486;2023-11-19T01:52:27;88272.56;;;12.03;43.94
82927;BME280;72788;40.218;44.486;2023-11-19T01:54:53;88281.81;;;11.95;44.73
82927;BME280;72788;40.218;44.486;2023-11-19T01:57:22;88271.81;;;11.87;45.56
82927;BME280;72788;40.218;44.486;2023-11-19T01:59:50;88268.34;;;11.90;44.56
82927;BME280;72788;40.218;44.486;2023-11-19T02:02:16;88259.47;;;11.96;44.54
82927;BME280;72788;40.218;44.486;2023-11-19T02:04:47;88278.44;;;11.95;44.96
82927;BME280;72788;40.218;44.486;2023-11-19T02:07:14;88289.00;;;11.95;44.39
82927;BME280;72788;40.218;44.486;2023-11-19T02:09:42;88282.06;;;12.01;44.54
82927;BME280;72788;40.218;44.486;2023-11-19T02:12:09;88276.91;;;12.10;44.18
82927;BME280;72788;40.218;44.486;2023-11-19T02:14:37;88280.78;;;12.21;44.42
82927;BME280;72788;40.218;44.486;2023-11-19T02:17:03;88277.88;;;12.32;44.21
82927;BME280;72788;40.218;44.486;2023-11-19T02:19:29;88259.69;;;12.34;43.73
82927;BME280;72788;40.218;44.486;2023-11-19T02:21:55;88263.38;;;12.37;43.91
82927;BME280;72788;40.218;44.486;2023-11-19T02:24:22;88279.53;;;12.42;44.32
82927;BME280;72788;40.218;44.486;2023-11-19T02:27:07;88284.53;;;12.53;44.47
82927;BME280;72788;40.218;44.486;2023-11-19T02:29:36;88274.25;;;12.55;43.47
82927;BME280;72788;40.218;44.486;2023-11-19T02:32:01;88266.66;;;12.57;43.81
82927;BME280;72788;40.218;44.486;2023-11-19T02:34:28;88241.81;;;12.51;44.02
82927;BME280;72788;40.218;44.486;2023-11-19T02:36:54;88240.53;;;12.43;43.75
82927;BME280;72788;40.218;44.486;2023-11-19T02:39:19;88248.16;;;12.41;44.06
82927;BME280;72788;40.218;44.486;2023-11-19T02:41:47;88245.00;;;12.46;43.89
82927;BME280;72788;40.218;44.486;2023-11-19T02:44:16;88242.66;;;12.48;43.84
82927;BME280;72788;40.218;44.486;2023-11-19T02:46:42;88243.50;;;12.45;43.37
82927;BME280;72788;40.218;44.486;2023-11-19T02:49:07;88234.06;;;12.44;42.86
82927;BME280;72788;40.218;44.486;2023-11-19T02:51:33;88240.94;;;12.41;43.69
82927;BME280;72788;40.218;44.486;2023-11-19T02:54:00;88240.84;;;12.45;43.82
82927;BME280;72788;40.218;44.486;2023-11-19T02:56:26;88224.44;;;12.50;43.35
82927;BME280;72788;40.218;44.486;2023-11-19T02:58:52;88218.41;;;12.49;42.75
82927;BME280;72788;40.218;44.486;2023-11-19T03:01:24;88227.41;;;12.52;42.96
82927;BME280;72788;40.218;44.486;2023-11-19T03:04:00;88228.91;;;12.53;43.27
82927;BME280;72788;40.218;44.486;2023-11-19T03:06:27;88224.34;;;12.53;43.17
82927;BME280;72788;40.218;44.486;2023-11-19T03:08:55;88211.97;;;12.50;43.44
82927;BME280;72788;40.218;44.486;2023-11-19T03:11:21;88213.84;;;12.50;43.57
82927;BME280;72788;40.218;44.486;2023-11-19T03:13:46;88218.31;;;12.53;42.75
82927;BME280;72788;40.218;44.486;2023-11-19T03:16:12;88210.59;;;12.58;42.99
82927;BME280;72788;40.218;44.486;2023-11-19T03:18:39;88213.38;;;12.67;43.27
82927;BME280;72788;40.218;44.486;2023-11-19T03:21:08;88221.97;;;12.71;42.61
82927;BME280;72788;40.218;44.486;2023-11-19T03:23:34;88223.75;;;12.74;43.24
82927;BME280;72788;40.218;44.486;2023-11-19T03:26:00;88232.16;;;12.73;42.46
82927;BME280;72788;40.218;44.486;2023-11-19T03:28:29;88235.72;;;12.66;42.72
82927;BME280;72788;40.218;44.486;2023-11-19T03:30:56;88219.50;;;12.64;42.70
82927;BME280;72788;40.218;44.486;2023-11-19T03:33:21;88210.59;;;12.71;42.64
82927;BME280;72788;40.218;44.486;2023-11-19T03:35:47;88212.00;;;12.75;42.77
82927;BME280;72788;40.218;44.486;2023-11-19T03:38:13;88223.34;;;12.76;42.58
82927;BME280;72788;40.218;44.486;2023-11-19T03:40:39;88216.91;;;12.77;42.90
82927;BME280;72788;40.218;44.486;2023-11-19T03:43:06;88217.53;;;12.81;42.39
82927;BME280;72788;40.218;44.486;2023-11-19T03:45:31;88215.53;;;12.85;42.44
82927;BME280;72788;40.218;44.486;2023-11-19T03:47:57;88222.41;;;12.82;42.40
82927;BME280;72788;40.218;44.486;2023-11-19T03:50:23;88227.59;;;12.86;42.71
82927;BME280;72788;40.218;44.486;2023-11-19T03:52:49;88226.69;;;12.93;42.51
82927;BME280;72788;40.218;44.486;2023-11-19T03:55:15;88223.81;;;13.00;42.60
82927;BME280;72788;40.218;44.486;2023-11-19T03:57:40;88221.06;;;13.03;42.29
82927;BME280;72788;40.218;44.486;2023-11-19T04:00:06;88218.22;;;13.10;42.98
82927;BME280;72788;40.218;44.486;2023-11-19T04:02:36;88214.84;;;13.22;42.46
82927;BME280;72788;40.218;44.486;2023-11-19T04:05:02;88217.28;;;13.30;42.11
82927;BME280;72788;40.218;44.486;2023-11-19T04:07:30;88209.03;;;13.40;42.36
82927;BME280;72788;40.218;44.486;2023-11-19T04:09:56;88203.81;;;13.49;42.14
82927;BME280;72788;40.218;44.486;2023-11-19T04:12:22;88202.00;;;13.59;42.59
82927;BME280;72788;40.218;44.486;2023-11-19T04:14:48;88215.81;;;13.66;42.27
82927;BME280;72788;40.218;44.486;2023-11-19T04:17:13;88210.16;;;13.77;42.10
82927;BME280;72788;40.218;44.486;2023-11-19T04:19:39;88201.44;;;13.89;41.94
82927;BME280;72788;40.218;44.486;2023-11-19T04:22:07;88189.81;;;13.96;41.87
82927;BME280;72788;40.218;44.486;2023-11-19T04:24:34;88196.22;;;13.98;41.74
82927;BME280;72788;40.218;44.486;2023-11-19T04:27:00;88188.13;;;14.02;41.55
82927;BME280;72788;40.218;44.486;2023-11-19T04:29:25;88190.97;;;14.07;42.02
82927;BME280;72788;40.218;44.486;2023-11-19T04:31:51;88187.03;;;14.12;41.52
82927;BME280;72788;40.218;44.486;2023-11-19T04:34:16;88194.56;;;14.13;41.70
82927;BME280;72788;40.218;44.486;2023-11-19T04:36:42;88197.53;;;14.15;41.78
82927;BME280;72788;40.218;44.486;2023-11-19T04:39:09;88198.16;;;14.19;41.69
82927;BME280;72788;40.218;44.486;2023-11-19T04:41:35;88193.47;;;14.23;41.79
82927;BME280;72788;40.218;44.486;2023-11-19T04:44:02;88196.63;;;14.31;41.48
82927;BME280;72788;40.218;44.486;2023-11-19T04:46:27;88201.75;;;14.38;41.88
82927;BME280;72788;40.218;44.486;2023-11-19T04:48:53;88209.91;;;14.44;41.27
82927;BME280;72788;40.218;44.486;2023-11-19T04:51:18;88211.13;;;14.52;41.27
82927;BME280;72788;40.218;44.486;2023-11-19T04:53:44;88207.50;;;14.58;41.24
82927;BME280;72788;40.218;44.486;2023-11-19T04:56:10;88215.84;;;14.70;41.26
82927;BME280;72788;40.218;44.486;2023-11-19T04:58:37;88208.38;;;14.77;41.20
82927;BME280;72788;40.218;44.486;2023-11-19T05:01:06;88203.34;;;14.79;40.76
82927;BME280;72788;40.218;44.486;2023-11-19T05:03:31;88204.28;;;14.85;41.19
82927;BME280;72788;40.218;44.486;2023-11-19T05:05:58;88208.28;;;14.90;40.92
82927;BME280;72788;40.218;44.486;2023-11-19T05:08:23;88208.47;;;14.95;40.51
82927;BME280;72788;40.218;44.486;2023-11-19T05:10:49;88200.69;;;15.01;40.62
82927;BME280;72788;40.218;44.486;2023-11-19T05:13:15;88200.09;;;15.06;40.74
82927;BME280;72788;40.218;44.486;2023-11-19T05:15:41;88204.13;;;15.10;40.61
82927;BME280;72788;40.218;44.486;2023-11-19T05:18:06;88210.06;;;15.14;40.71
82927;BME280;72788;40.218;44.486;2023-11-19T05:20:32;88213.47;;;15.15;40.72
82927;BME280;72788;40.218;44.486;2023-11-19T05:22:58;88223.97;;;15.19;40.50
82927;BME280;72788;40.218;44.486;2023-11-19T05:25:26;88227.56;;;15.25;40.44
82927;BME280;72788;40.218;44.486;2023-11-19T05:27:52;88232.44;;;15.26;40.80
82927;BME280;72788;40.218;44.486;2023-11-19T05:30:18;88233.63;;;15.25;40.91
82927;BME280;72788;40.218;44.486;2023-11-19T05:32:44;88221.63;;;15.21;40.76
82927;BME280;72788;40.218;44.486;2023-11-19T05:35:10;88216.31;;;15.21;40.67
82927;BME280;72788;40.218;44.486;2023-11-19T05:37:36;88225.75;;;15.22;41.11
82927;BME280;72788;40.218;44.486;2023-11-19T05:40:02;88223.84;;;15.22;41.05
82927;BME280;72788;40.218;44.486;2023-11-19T05:42:29;88223.28;;;15.27;40.79
82927;BME280;72788;40.218;44.486;2023-11-19T05:44:55;88211.16;;;15.26;41.14
82927;BME280;72788;40.218;44.486;2023-11-19T05:47:21;88208.06;;;15.28;41.14
82927;BME280;72788;40.218;44.486;2023-11-19T05:49:46;88219.75;;;15.30;41.15
82927;BME280;72788;40.218;44.486;2023-11-19T05:52:12;88209.84;;;15.31;40.80
82927;BME280;72788;40.218;44.486;2023-11-19T05:54:38;88223.72;;;15.26;41.01
82927;BME280;72788;40.218;44.486;2023-11-19T05:57:07;88221.50;;;15.24;41.26
82927;BME280;72788;40.218;44.486;2023-11-19T05:59:36;88221.25;;;15.31;41.16
82927;BME280;72788;40.218;44.486;2023-11-19T06:02:02;88211.06;;;15.39;40.90
82927;BME280;72788;40.218;44.486;2023-11-19T06:04:28;88209.31;;;15.45;41.12
82927;BME280;72788;40.218;44.486;2023-11-19T06:06:54;88206.53;;;15.48;41.18
82927;BME280;72788;40.218;44.486;2023-11-19T06:09:21;88205.09;;;15.56;40.57
82927;BME280;72788;40.218;44.486;2023-11-19T06:11:49;88198.78;;;15.63;40.89
82927;BME280;72788;40.218;44.486;2023-11-19T06:14:16;88193.59;;;15.69;40.65
82927;BME280;72788;40.218;44.486;2023-11-19T06:16:42;88191.69;;;15.69;40.84
82927;BME280;72788;40.218;44.486;2023-11-19T06:19:07;88190.97;;;15.78;40.66
82927;BME280;72788;40.218;44.486;2023-11-19T06:21:33;88187.28;;;15.84;40.40
82927;BME280;72788;40.218;44.486;2023-11-19T06:24:01;88184.19;;;15.86;40.04
82927;BME280;72788;40.218;44.486;2023-11-19T06:26:26;88177.84;;;15.83;40.33
82927;BME280;72788;40.218;44.486;2023-11-19T06:28:52;88167.50;;;15.94;40.57
82927;BME280;72788;40.218;44.486;2023-11-19T06:31:18;88166.03;;;16.02;40.09
82927;BME280;72788;40.218;44.486;2023-11-19T06:33:43;88166.31;;;16.04;40.28
82927;BME280;72788;40.218;44.486;2023-11-19T06:36:09;88171.81;;;16.10;40.08
82927;BME280;72788;40.218;44.486;2023-11-19T06:38:35;88167.69;;;16.18;39.75
82927;BME280;72788;40.218;44.486;2023-11-19T06:41:01;88167.53;;;16.22;39.53
82927;BME280;72788;40.218;44.486;2023-11-19T06:43:26;88168.13;;;16.26;39.61
82927;BME280;72788;40.218;44.486;2023-11-19T06:45:53;88175.53;;;16.31;39.64
82927;BME280;72788;40.218;44.486;2023-11-19T06:48:19;88160.84;;;16.35;39.36
82927;BME280;72788;40.218;44.486;2023-11-19T06:50:45;88174.94;;;16.36;39.65
82927;BME280;72788;40.218;44.486;2023-11-19T06:53:11;88167.25;;;16.38;39.36
82927;BME280;72788;40.218;44.486;2023-11-19T06:55:36;88163.38;;;16.39;39.69
82927;BME280;72788;40.218;44.486;2023-11-19T06:58:02;88167.69;;;16.45;39.62
82927;BME280;72788;40.218;44.486;2023-11-19T07:00:29;88174.34;;;16.50;39.69
82927;BME280;72788;40.218;44.486;2023-11-19T07:02:55;88172.44;;;16.60;39.44
82927;BME280;72788;40.218;44.486;2023-11-19T07:05:20;88169.34;;;16.61;39.22
82927;BME280;72788;40.218;44.486;2023-11-19T07:07:46;88177.31;;;16.70;39.38
82927;BME280;72788;40.218;44.486;2023-11-19T07:10:12;88172.88;;;16.76;39.42
82927;BME280;72788;40.218;44.486;2023-11-19T07:12:38;88157.75;;;16.82;38.98
82927;BME280;72788;40.218;44.486;2023-11-19T07:15:04;88150.91;;;16.90;39.29
82927;BME280;72788;40.218;44.486;2023-11-19T07:17:31;88142.31;;;16.95;39.22
82927;BME280;72788;40.218;44.486;2023-11-19T07:19:56;88132.22;;;16.99;38.93
82927;BME280;72788;40.218;44.486;2023-11-19T07:22:25;88134.91;;;16.99;38.45
82927;BME280;72788;40.218;44.486;2023-11-19T07:24:51;88142.00;;;17.02;38.61
82927;BME280;72788;40.218;44.486;2023-11-19T07:27:18;88144.09;;;16.98;38.54
82927;BME280;72788;40.218;44.486;2023-11-19T07:29:44;88146.75;;;16.98;38.91
82927;BME280;72788;40.218;44.486;2023-11-19T07:32:10;88137.41;;;17.03;38.51
82927;BME280;72788;40.218;44.486;2023-11-19T07:34:36;88130.41;;;17.15;38.91
82927;BME280;72788;40.218;44.486;2023-11-19T07:37:02;88119.09;;;17.29;38.45
82927;BME280;72788;40.218;44.486;2023-11-19T07:39:28;88101.09;;;17.38;37.43
82927;BME280;72788;40.218;44.486;2023-11-19T07:41:54;88095.25;;;17.49;37.09
82927;BME280;72788;40.218;44.486;2023-11-19T07:44:20;88104.44;;;17.57;37.94
82927;BME280;72788;40.218;44.486;2023-11-19T07:46:47;88085.72;;;17.66;37.80
82927;BME280;72788;40.218;44.486;2023-11-19T07:49:13;88085.94;;;17.77;37.73
82927;BME280;72788;40.218;44.486;2023-11-19T07:51:40;88087.47;;;17.69;37.51
82927;BME280;72788;40.218;44.486;2023-11-19T07:54:05;88085.94;;;17.77;37.30
82927;BME280;72788;40.218;44.486;2023-11-19T07:56:34;88066.56;;;17.91;37.19
82927;BME280;72788;40.218;44.486;2023-11-19T07:59:01;88078.09;;;17.98;36.92
82927;BME280;72788;40.218;44.486;2023-11-19T08:01:27;88074.41;;;17.95;36.67
82927;BME280;72788;40.218;44.486;2023-11-19T08:03:53;88066.00;;;17.87;36.69
82927;BME280;72788;40.218;44.486;2023-11-19T08:06:19;88073.50;;;17.74;37.01
82927;BME280;72788;40.218;44.486;2023-11-19T08:08:44;88068.91;;;17.75;37.00
82927;BME280;72788;40.218;44.486;2023-11-19T08:11:10;88070.91;;;17.80;37.21
82927;BME280;72788;40.218;44.486;2023-11-19T08:13:36;88073.44;;;17.83;37.15
82927;BME280;72788;40.218;44.486;2023-11-19T08:16:01;88069.84;;;17.86;36.85
82927;BME280;72788;40.218;44.486;2023-11-19T08:18:27;88068.50;;;17.91;36.99
82927;BME280;72788;40.218;44.486;2023-11-19T08:20:53;88077.69;;;17.90;37.15
82927;BME280;72788;40.218;44.486;2023-11-19T08:23:20;88064.59;;;17.92;36.81
82927;BME280;72788;40.218;44.486;2023-11-19T08:25:46;88066.22;;;17.99;36.81
82927;BME280;72788;40.218;44.486;2023-11-19T08:28:12;88057.28;;;18.02;36.95
82927;BME280;72788;40.218;44.486;2023-11-19T08:30:37;88052.84;;;17.99;36.94
82927;BME280;72788;40.218;44.486;2023-11-19T08:33:03;88051.94;;;18.02;36.67
82927;BME280;72788;40.218;44.486;2023-11-19T08:35:29;88055.63;;;18.04;36.46
82927;BME280;72788;40.218;44.486;2023-11-19T08:37:55;88065.00;;;18.00;36.62
82927;BME280;72788;40.218;44.486;2023-11-19T08:40:21;88058.19;;;17.99;36.68
82927;BME280;72788;40.218;44.486;2023-11-19T08:42:46;88047.16;;;18.06;36.80
82927;BME280;72788;40.218;44.486;2023-11-19T08:45:12;88049.81;;;18.06;36.81
82927;BME280;72788;40.218;44.486;2023-11-19T08:47:38;88053.06;;;18.10;36.52
82927;BME280;72788;40.218;44.486;2023-11-19T08:50:06;88047.97;;;18.12;36.67
82927;BME280;72788;40.218;44.486;2023-11-19T08:52:32;88054.06;;;18.12;36.64
82927;BME280;72788;40.218;44.486;2023-11-19T08:54:57;88048.47;;;18.10;36.18
82927;BME280;72788;40.218;44.486;2023-11-19T08:57:23;88047.91;;;18.06;35.77
82927;BME280;72788;40.218;44.486;2023-11-19T08:59:49;88050.19;;;17.99;36.16
82927;BME280;72788;40.218;44.486;2023-11-19T09:02:14;88038.00;;;17.98;36.30
82927;BME280;72788;40.218;44.486;2023-11-19T09:04:41;88043.16;;;18.01;36.47
82927;BME280;72788;40.218;44.486;2023-11-19T09:07:07;88045.22;;;18.06;35.75
82927;BME280;72788;40.218;44.486;2023-11-19T09:09:35;88044.31;;;18.09;36.04
82927;BME280;72788;40.218;44.486;2023-11-19T09:12:02;88046.75;;;17.98;36.38
82927;BME280;72788;40.218;44.486;2023-11-19T09:14:29;88051.63;;;18.00;35.90
82927;BME280;72788;40.218;44.486;2023-11-19T09:16:56;88041.50;;;18.04;36.39
82927;BME280;72788;40.218;44.486;2023-11-19T09:19:21;88038.69;;;18.07;36.06
82927;BME280;72788;40.218;44.486;2023-11-19T09:21:47;88033.34;;;18.07;35.11
82927;BME280;72788;40.218;44.486;2023-11-19T09:24:15;88039.88;;;18.06;35.85
82927;BME280;72788;40.218;44.486;2023-11-19T09:26:41;88035.16;;;18.01;35.56
82927;BME280;72788;40.218;44.486;2023-11-19T09:29:10;88027.13;;;18.01;35.64
82927;BME280;72788;40.218;44.486;2023-11-19T09:31:38;88027.69;;;18.05;36.22
82927;BME280;72788;40.218;44.486;2023-11-19T09:34:04;88019.50;;;18.09;35.87
82927;BME280;72788;40.218;44.486;2023-11-19T09:36:30;88013.97;;;18.12;36.08
82927;BME280;72788;40.218;44.486;2023-11-19T09:38:56;88007.16;;;18.11;36.03
82927;BME280;72788;40.218;44.486;2023-11-19T09:41:23;88018.56;;;18.12;35.92
82927;BME280;72788;40.218;44.486;2023-11-19T09:43:49;88009.94;;;18.17;35.81
82927;BME280;72788;40.218;44.486;2023-11-19T09:46:16;88001.53;;;18.24;35.69
82927;BME280;72788;40.218;44.486;2023-11-19T09:48:42;87997.03;;;18.30;35.35
82927;BME280;72788;40.218;44.486;2023-11-19T09:51:10;87999.06;;;18.35;35.38
82927;BME280;72788;40.218;44.486;2023-11-19T09:53:36;87988.75;;;18.42;35.16
82927;BME280;72788;40.218;44.486;2023-11-19T09:56:04;87981.09;;;18.50;34.64
82927;BME280;72788;40.218;44.486;2023-11-19T09:58:31;87977.34;;;18.57;35.27
82927;BME280;72788;40.218;44.486;2023-11-19T10:00:57;87978.16;;;18.63;35.38
82927;BME280;72788;40.218;44.486;2023-11-19T10:03:33;87966.06;;;18.67;35.32
82927;BME280;72788;40.218;44.486;2023-11-19T10:06:06;87956.47;;;18.75;34.13
82927;BME280;72788;40.218;44.486;2023-11-19T10:08:33;87968.00;;;18.81;34.71
82927;BME280;72788;40.218;44.486;2023-11-19T10:10:58;87962.47;;;18.85;34.75
82927;BME280;72788;40.218;44.486;2023-11-19T10:13:31;87959.94;;;18.96;33.24
82927;BME280;72788;40.218;44.486;2023-11-19T10:15:56;87951.81;;;19.05;34.48
82927;BME280;72788;40.218;44.486;2023-11-19T10:18:26;87942.25;;;19.19;33.88
82927;BME280;72788;40.218;44.486;2023-11-19T10:20:52;87949.81;;;19.20;34.06
82927;BME280;72788;40.218;44.486;2023-11-19T10:23:19;87950.56;;;19.21;34.06
82927;BME280;72788;40.218;44.486;2023-11-19T10:25:44;87950.72;;;19.17;34.19
82927;BME280;72788;40.218;44.486;2023-11-19T10:28:10;87938.34;;;19.00;33.06
82927;BME280;72788;40.218;44.486;2023-11-19T10:30:36;87944.63;;;18.82;33.97
82927;BME280;72788;40.218;44.486;2023-11-19T10:33:06;87940.69;;;18.77;33.47
82927;BME280;72788;40.218;44.486;2023-11-19T10:35:33;87927.03;;;18.75;34.19
82927;BME280;72788;40.218;44.486;2023-11-19T10:38:15;87928.22;;;18.74;33.95
82927;BME280;72788;40.218;44.486;2023-11-19T10:40:41;87924.28;;;18.70;34.20
82927;BME280;72788;40.218;44.486;2023-11-19T10:43:07;87930.53;;;18.67;33.83
82927;BME280;72788;40.218;44.486;2023-11-19T10:45:33;87924.00;;;18.68;34.05
82927;BME280;72788;40.218;44.486;2023-11-19T10:47:59;87931.28;;;18.67;34.05
82927;BME280;72788;40.218;44.486;2023-11-19T10:50:26;87931.66;;;18.60;32.94
82927;BME280;72788;40.218;44.486;2023-11-19T10:52:56;87937.09;;;18.51;33.47
82927;BME280;72788;40.218;44.486;2023-11-19T10:55:29;87940.97;;;18.50;32.97
82927;BME280;72788;40.218;44.486;2023-11-19T10:58:03;87931.94;;;18.48;33.46
82927;BME280;72788;40.218;44.486;2023-11-19T11:00:30;87932.59;;;18.42;33.69
82927;BME280;72788;40.218;44.486;2023-11-19T11:03:08;87935.28;;;18.42;33.20
82927;BME280;72788;40.218;44.486;2023-11-19T11:05:37;87940.06;;;18.38;33.43
82927;BME280;72788;40.218;44.486;2023-11-19T11:08:06;87923.47;;;18.34;33.50
82927;BME280;72788;40.218;44.486;2023-11-19T11:10:37;87924.00;;;18.24;33.43
82927;BME280;72788;40.218;44.486;2023-11-19T11:13:05;87923.81;;;18.27;34.14
82927;BME280;72788;40.218;44.486;2023-11-19T11:15:31;87909.25;;;18.28;33.68
82927;BME280;72788;40.218;44.486;2023-11-19T11:18:01;87927.25;;;18.28;33.15
82927;BME280;72788;40.218;44.486;2023-11-19T11:20:31;87929.09;;;18.22;33.54
82927;BME280;72788;40.218;44.486;2023-11-19T11:31:48;87917.94;;;18.38;32.79
82927;BME280;72788;40.218;44.486;2023-11-19T11:37:21;87929.94;;;18.42;32.10
82927;BME280;72788;40.218;44.486;2023-11-19T11:39:50;87935.91;;;18.37;33.54
82927;BME280;72788;40.218;44.486;2023-11-19T11:50:12;87908.16;;;18.20;33.15
82927;BME280;72788;40.218;44.486;2023-11-19T11:57:57;87904.75;;;18.20;33.05
82927;BME280;72788;40.218;44.486;2023-11-19T12:00:29;87904.75;;;18.20;32.99
82927;BME280;72788;40.218;44.486;2023-11-19T12:02:56;87906.69;;;18.19;33.71
82927;BME280;72788;40.218;44.486;2023-11-19T12:05:23;87907.78;;;18.13;33.52
82927;BME280;72788;40.218;44.486;2023-11-19T12:07:56;87914.31;;;18.12;32.73
82927;BME280;72788;40.218;44.486;2023-11-19T12:10:24;87908.16;;;18.06;33.41
82927;BME280;72788;40.218;44.486;2023-11-19T12:12:53;87906.41;;;18.03;33.18
82927;BME280;72788;40.218;44.486;2023-11-19T12:15:19;87899.31;;;18.00;33.69
82927;BME280;72788;40.218;44.486;2023-11-19T12:17:50;87912.97;;;18.02;33.73
82927;BME280;72788;40.218;44.486;2023-11-19T12:20:25;87905.38;;;18.00;33.85
82927;BME280;72788;40.218;44.486;2023-11-19T12:22:52;87912.41;;;17.98;33.93
82927;BME280;72788;40.218;44.486;2023-11-19T12:25:19;87909.72;;;17.98;33.79
82927;BME280;72788;40.218;44.486;2023-11-19T12:27:50;87913.88;;;17.99;33.78
82927;BME280;72788;40.218;44.486;2023-11-19T12:30:25;87912.84;;;17.96;33.07
82927;BME280;72788;40.218;44.486;2023-11-19T12:32:52;87908.91;;;17.91;33.55
82927;BME280;72788;40.218;44.486;2023-11-19T12:35:22;87913.22;;;17.89;33.62
82927;BME280;72788;40.218;44.486;2023-11-19T12:37:52;87901.03;;;17.88;33.34
82927;BME280;72788;40.218;44.486;2023-11-19T12:40:24;87887.25;;;17.89;34.08
82927;BME280;72788;40.218;44.486;2023-11-19T12:42:51;87884.94;;;17.82;34.00
82927;BME280;72788;40.218;44.486;2023-11-19T12:45:18;87893.88;;;17.79;33.90
82927;BME280;72788;40.218;44.486;2023-11-19T12:47:45;87895.06;;;17.78;33.83
82927;BME280;72788;40.218;44.486;2023-11-19T12:50:16;87891.53;;;17.72;33.98
82927;BME280;72788;40.218;44.486;2023-11-19T12:52:55;87881.22;;;17.65;33.60
82927;BME280;72788;40.218;44.486;2023-11-19T12:57:51;87889.97;;;17.66;33.92
82927;BME280;72788;40.218;44.486;2023-11-19T13:00:22;87874.13;;;17.62;34.00
82927;BME280;72788;40.218;44.486;2023-11-19T13:02:52;87867.19;;;17.56;34.17
82927;BME280;72788;40.218;44.486;2023-11-19T13:05:29;87869.88;;;17.56;33.73
82927;BME280;72788;40.218;44.486;2023-11-19T13:08:06;87869.88;;;17.56;34.02
82927;BME280;72788;40.218;44.486;2023-11-19T13:10:33;87873.44;;;17.52;34.47
82927;BME280;72788;40.218;44.486;2023-11-19T13:13:07;87863.06;;;17.55;34.17
82927;BME280;72788;40.218;44.486;2023-11-19T13:15:36;87867.84;;;17.50;34.23
82927;BME280;72788;40.218;44.486;2023-11-19T13:18:02;87870.50;;;17.50;33.95